createdAt,value
2022-11-17T00:01:08.939Z,4.85
2022-11-17T00:15:08.957Z,4.00
2022-11-17T00:29:08.993Z,3.80
2022-11-17T00:43:08.976Z,3.40
2022-11-17T00:57:09.126Z,5.10
2022-11-17T01:11:09.084Z,3.60
2022-11-17T01:25:09.104Z,3.00
2022-11-17T01:39:09.077Z,3.00
2022-11-17T01:53:09.089Z,2.60
2022-11-17T02:07:09.134Z,2.60
2022-11-17T02:21:09.119Z,2.40
2022-11-17T02:35:09.122Z,2.40
2022-11-17T02:49:09.161Z,2.10
2022-11-17T03:03:09.240Z,2.20
2022-11-17T03:17:09.229Z,1.70
2022-11-17T03:31:09.216Z,2.10
2022-11-17T03:45:10.027Z,2.00
2022-11-17T03:59:09.207Z,2.30
2022-11-17T04:13:09.313Z,1.50
2022-11-17T04:27:09.381Z,1.70
2022-11-17T04:41:09.347Z,1.60
2022-11-17T04:55:09.369Z,1.70
2022-11-17T05:09:09.360Z,1.50
2022-11-17T05:23:09.362Z,1.20
2022-11-17T05:37:09.495Z,1.40
2022-11-17T05:51:09.562Z,1.50
2022-11-17T06:05:09.550Z,4.00
2022-11-17T06:20:09.587Z,6.00
2022-11-17T06:35:09.638Z,6.80
2022-11-17T06:50:09.789Z,7.10
2022-11-17T07:05:09.866Z,6.90
2022-11-17T07:20:09.934Z,9.40
2022-11-17T07:35:09.929Z,21.10
2022-11-17T07:50:10.010Z,20.80
2022-11-17T08:05:10.095Z,20.35
2022-11-17T08:20:10.059Z,18.40
2022-11-17T08:35:10.063Z,18.80
2022-11-17T08:50:10.090Z,14.70
2022-11-17T09:05:10.112Z,12.90
2022-11-17T09:20:10.157Z,15.70
2022-11-17T09:35:10.234Z,12.90
2022-11-17T09:50:10.405Z,10.90
2022-11-17T10:05:10.511Z,9.00
2022-11-17T10:20:10.400Z,10.90
2022-11-17T10:35:10.391Z,9.30
2022-11-17T10:50:10.468Z,6.00
2022-11-17T11:05:10.588Z,7.60
2022-11-17T11:20:10.621Z,8.20
2022-11-17T11:35:14.614Z,6.20
2022-11-17T11:50:10.819Z,6.20
2022-11-17T12:05:10.850Z,4.60
2022-11-17T12:20:11.216Z,3.60
2022-11-17T12:35:10.856Z,4.80
2022-11-17T12:50:10.958Z,6.50
2022-11-17T13:05:10.874Z,7.70
2022-11-17T13:20:10.885Z,7.30
2022-11-17T13:35:10.909Z,5.80
2022-11-17T13:51:10.929Z,6.90
2022-11-17T14:06:10.901Z,5.60
2022-11-17T14:21:10.934Z,5.80
2022-11-17T14:36:10.936Z,5.60
2022-11-17T14:51:10.948Z,5.20
2022-11-17T15:06:14.008Z,4.50
2022-11-17T15:21:10.900Z,4.80
2022-11-17T15:36:10.913Z,7.70
2022-11-17T15:53:11.090Z,5.40
2022-11-17T16:08:11.107Z,4.10
2022-11-17T16:23:11.128Z,4.70
2022-11-17T16:37:11.134Z,6.00
2022-11-17T16:51:11.127Z,6.20
2022-11-17T17:05:11.133Z,4.10
2022-11-17T17:19:11.190Z,4.30
2022-11-17T17:33:11.181Z,4.90
2022-11-17T17:47:11.257Z,4.10
2022-11-17T18:01:11.318Z,4.90
2022-11-17T18:15:11.360Z,4.00
2022-11-17T18:29:11.388Z,4.70
2022-11-17T18:43:11.709Z,3.70
2022-11-17T18:57:11.362Z,4.10
2022-11-17T19:11:11.420Z,6.60
2022-11-17T19:25:11.427Z,4.10
2022-11-17T19:39:11.429Z,4.40
2022-11-17T19:53:11.430Z,3.60
2022-11-17T20:07:11.452Z,5.30
2022-11-17T20:21:11.421Z,5.80
2022-11-17T20:35:11.466Z,5.80
2022-11-17T20:49:11.395Z,7.80
2022-11-17T21:03:11.470Z,10.10
2022-11-17T21:17:11.495Z,12.10
2022-11-17T21:31:11.405Z,10.40
2022-11-17T21:45:11.396Z,10.00
2022-11-17T21:59:11.435Z,9.70
2022-11-17T22:13:11.436Z,8.80
2022-11-17T22:27:11.441Z,9.10
2022-11-17T22:41:11.434Z,8.70
2022-11-17T22:55:11.464Z,8.90
2022-11-17T23:09:11.451Z,8.70
2022-11-17T23:23:11.519Z,9.00
2022-11-17T23:37:11.540Z,8.10
2022-11-17T23:51:11.544Z,7.90
